Time,TemperatureF,DewpointF,PressureIn,WindDirection,WindDirectionDegrees,WindSpeedMPH,WindSpeedGustMPH,Humidity,HourlyPrecipIn,Conditions,Clouds,dailyrainin,SoftwareType,DateUTC
2013-05-26 03:00:00,43.0,42.0,30.20,North,-999,-999.0,-999.0,97,-99.99,,,-99.99,,2013-05-26 02:00:00,
2013-05-26 03:41:00,43.0,42.0,30.20,North,-999,-999.0,-999.0,97,-99.99,,,-99.99,,2013-05-26 02:41:00,
2013-05-26 03:52:00,43.0,42.0,30.20,North,-999,-999.0,-999.0,97,-99.99,,,-99.99,,2013-05-26 02:52:00,
2013-05-26 04:00:00,48.0,48.0,30.17,North,-999,-999.0,-999.0,100,-99.99,,,-99.99,,2013-05-26 03:00:00,
2013-05-26 04:42:00,48.0,48.0,30.17,North,-999,-999.0,-999.0,100,-99.99,,,-99.99,,2013-05-26 03:42:00,
2013-05-26 04:53:00,48.0,48.0,30.17,North,-999,-999.0,-999.0,100,-99.99,,,-99.99,,2013-05-26 03:53:00,
2013-05-26 05:00:00,48.0,48.0,30.16,North,-999,-999.0,-999.0,100,-99.99,,,-99.99,,2013-05-26 04:00:00,
2013-05-26 05:42:00,48.0,48.0,30.16,North,-999,-999.0,-999.0,100,-99.99,,,-99.99,,2013-05-26 04:42:00,
2013-05-26 05:52:00,48.0,48.0,30.16,North,-999,-999.0,-999.0,100,-99.99,,,-99.99,,2013-05-26 04:52:00,
2013-05-26 07:00:00,49.0,49.0,30.15,North,-999,-999.0,-999.0,100,-99.99,,,-99.99,,2013-05-26 06:00:00,
2013-05-26 07:41:00,49.0,49.0,30.15,North,-999,-999.0,-999.0,100,-99.99,,,-99.99,,2013-05-26 06:41:00,
2013-05-26 07:51:00,49.0,49.0,30.15,North,-999,-999.0,-999.0,100,-99.99,,,-99.99,,2013-05-26 06:51:00,
2013-05-26 12:00:00,50.0,50.0,30.14,North,-999,-999.0,-999.0,98,-99.99,,,-99.99,,2013-05-26 11:00:00,
2013-05-26 12:42:00,50.0,50.0,30.14,North,-999,-999.0,-999.0,98,-99.99,,,-99.99,,2013-05-26 11:42:00,
2013-05-26 12:52:00,50.0,50.0,30.14,North,-999,-999.0,-999.0,98,-99.99,,,-99.99,,2013-05-26 11:52:00,
2013-05-26 13:00:00,56.0,45.0,30.14,North,-999,-999.0,-999.0,67,-99.99,,,-99.99,,2013-05-26 12:00:00,
2013-05-26 13:41:00,56.0,45.0,30.14,North,-999,-999.0,-999.0,67,-99.99,,,-99.99,,2013-05-26 12:41:00,
2013-05-26 13:52:00,56.0,45.0,30.14,North,-999,-999.0,-999.0,67,-99.99,,,-99.99,,2013-05-26 12:52:00,
2013-05-26 14:00:00,57.0,40.0,30.12,North,-999,-999.0,-999.0,53,-99.99,,,-99.99,,2013-05-26 13:00:00,
2013-05-26 14:41:00,57.0,40.0,30.12,North,-999,-999.0,-999.0,53,-99.99,,,-99.99,,2013-05-26 13:41:00,
2013-05-26 14:52:00,57.0,40.0,30.12,North,-999,-999.0,-999.0,53,-99.99,,,-99.99,,2013-05-26 13:52:00,
2013-05-26 15:00:00,55.0,44.0,30.09,North,-999,-999.0,-999.0,66,-99.99,,,-99.99,,2013-05-26 14:00:00,
2013-05-26 15:41:00,55.0,44.0,30.09,North,-999,-999.0,-999.0,66,-99.99,,,-99.99,,2013-05-26 14:41:00,
2013-05-26 15:51:00,55.0,44.0,30.09,North,-999,-999.0,-999.0,66,-99.99,,,-99.99,,2013-05-26 14:51:00,
2013-05-26 16:00:00,51.0,47.0,30.09,North,-999,-999.0,-999.0,89,-99.99,,,-99.99,,2013-05-26 15:00:00,
2013-05-26 16:33:00,51.0,47.0,30.09,North,-999,-999.0,-999.0,89,-99.99,,,-99.99,,2013-05-26 15:33:00,
2013-05-26 16:43:00,51.0,47.0,30.09,North,-999,-999.0,-999.0,89,-99.99,,,-99.99,,2013-05-26 15:43:00,
2013-05-26 16:53:00,51.0,47.0,30.09,North,-999,-999.0,-999.0,89,-99.99,,,-99.99,,2013-05-26 15:53:00,
2013-05-26 17:00:00,51.0,48.0,30.06,North,-999,-999.0,-999.0,91,-99.99,,,-99.99,,2013-05-26 16:00:00,
2013-05-26 17:42:00,51.0,48.0,30.06,North,-999,-999.0,-999.0,91,-99.99,,,-99.99,,2013-05-26 16:42:00,
2013-05-26 17:52:00,51.0,48.0,30.06,North,-999,-999.0,-999.0,91,-99.99,,,-99.99,,2013-05-26 16:52:00,
2013-05-26 19:00:00,53.0,48.0,30.00,North,-999,-999.0,-999.0,84,-99.99,,,-99.99,,2013-05-26 18:00:00,
2013-05-26 19:41:00,53.0,48.0,30.00,North,-999,-999.0,-999.0,84,-99.99,,,-99.99,,2013-05-26 18:41:00,
2013-05-26 19:52:00,53.0,48.0,30.00,North,-999,-999.0,-999.0,84,-99.99,,,-99.99,,2013-05-26 18:52:00,
2013-05-26 20:00:00,52.0,49.0,29.98,North,-999,-999.0,-999.0,88,-99.99,,,-99.99,,2013-05-26 19:00:00,
2013-05-26 20:41:00,52.0,49.0,29.98,North,-999,-999.0,-999.0,88,-99.99,,,-99.99,,2013-05-26 19:41:00,
2013-05-26 20:52:00,52.0,49.0,29.98,North,-999,-999.0,-999.0,88,-99.99,,,-99.99,,2013-05-26 19:52:00,
2013-05-26 21:00:00,51.0,48.0,29.96,North,-999,-999.0,-999.0,89,-99.99,,,-99.99,,2013-05-26 20:00:00,
2013-05-26 21:41:00,51.0,48.0,29.96,North,-999,-999.0,-999.0,89,-99.99,,,-99.99,,2013-05-26 20:41:00,
2013-05-26 21:52:00,51.0,48.0,29.96,North,-999,-999.0,-999.0,89,-99.99,,,-99.99,,2013-05-26 20:52:00,
2013-05-26 22:00:00,50.0,49.0,29.93,North,-999,-999.0,-999.0,95,-99.99,,,-99.99,,2013-05-26 21:00:00,
2013-05-26 22:43:00,50.0,49.0,29.93,North,-999,-999.0,-999.0,95,-99.99,,,-99.99,,2013-05-26 21:43:00,
2013-05-26 22:53:00,50.0,49.0,29.93,North,-999,-999.0,-999.0,95,-99.99,,,-99.99,,2013-05-26 21:53:00,